PABR METAR and TAF weather

Enter ICAO airport designator
Station Type Date Time Source
PABR METAR 2020/08/10 18:10 UTC NOAA

PABR 101810Z 27009KT 1/2SM R07/2000V4500FT FG VV003 04/03 A2985 RMK AO2 T00440033


Station Type Date Time Source
PABR Decoded METAR 2020/08/10 18:10 UTC NOAA

POST ROGERS MEMORIAL AIRPORT, AK, United States (PABR) 71-17N 156-46W 10M
Aug 10, 2020 - 02:10 PM EDT / 2020.08.10 1810 UTC
Wind: from the W (270 degrees) at 10 MPH (9 KT) (direction variable):0
Visibility: 1/2 mile(s):0
Sky conditions: obscured
Weather: fog
Temperature: 39.9 F (4.4 C)
Dew Point: 37.9 F (3.3 C)
Relative Humidity: 92%
Pressure (altimeter): 29.85 in. Hg (1010 hPa)
ob: PABR 101810Z 27009KT 1/2SM R07/2000V4500FT FG VV003 04/03 A2985 RMK AO2 T00440033
cycle: 18

Station Type Date Time Source
PABR TAF 2020/08/10 18:45 UTC NOAA

TAF PABR 101741Z 1018/1118 26007KT 1/4SM FG VV004
FM101900 27006KT 1 1/2SM BR OVC004
FM102100 27006KT 6SM BR OVC007
FM110600 18007KT P6SM SCT007 BKN040

Example: see airport list